Time;durP1;ratioP1;P1;durP2;ratioP2;P2;SDS_P1;SDS_P2;PMS_P1;PMS_P2;Temp;Humidity;BMP_temperature;BMP_pressure;BME280_temperature;BME280_humidity;BME280_pressure;Samples;Min_cycle;Max_cycle;Signal;HPM_P1;HPM_P2
2023/10/01 00:01:40;;;;;;;19.65;18.65;;;;;;;-141.02;81.07;42912.72;5114464;28;20221;-61
2023/10/01 00:04:07;;;;;;;19.40;18.50;;;;;;;-141.02;80.89;42901.22;5114167;28;20197;-62
2023/10/01 00:06:37;;;;;;;19.42;18.52;;;;;;;-141.02;80.64;42928.09;5114459;28;20196;-62
2023/10/01 00:09:17;;;;;;;19.98;18.98;;;;;;;-141.02;80.51;42916.56;5113687;28;20197;-66
2023/10/01 00:11:44;;;;;;;20.00;19.00;;;;;;;-141.02;80.77;42931.94;5114962;28;20276;-63
2023/10/01 00:14:11;;;;;;;20.10;19.10;;;;;;;-141.02;80.15;42947.28;5114308;28;20228;-58
2023/10/01 00:16:39;;;;;;;19.98;18.98;;;;;;;-141.02;81.09;42889.69;5113949;28;20657;-65
2023/10/01 00:19:06;;;;;;;19.55;18.65;;;;;;;-141.02;80.58;42945.38;5114248;28;20193;-60
2023/10/01 00:21:39;;;;;;;19.35;18.45;;;;;;;-141.02;80.86;42951.13;5113772;28;20213;-61
2023/10/01 00:24:07;;;;;;;19.77;18.77;;;;;;;-141.02;80.77;42949.19;5113909;28;20228;-58
2023/10/01 00:26:37;;;;;;;20.30;19.30;;;;;;;-141.02;80.77;42943.44;5114025;28;20224;-61
2023/10/01 00:29:04;;;;;;;20.13;19.13;;;;;;;-141.02;81.36;42951.13;5113744;28;20189;-59
2023/10/01 00:31:32;;;;;;;19.80;18.90;;;;;;;-141.02;83.57;42906.97;5113960;28;20209;-60
2023/10/01 00:33:59;;;;;;;19.55;18.65;;;;;;;-141.02;84.69;42893.53;5113674;27;20201;-65
2023/10/01 00:36:29;;;;;;;19.23;18.33;;;;;;;-141.02;87.35;42866.66;5113902;28;20197;-64
2023/10/01 00:38:56;;;;;;;18.50;17.70;;;;;;;-141.02;87.74;42835.94;5113470;28;20193;-64
2023/10/01 00:41:23;;;;;;;19.02;18.13;;;;;;;-141.02;88.23;42778.34;5113474;28;20235;-62
2023/10/01 00:43:52;;;;;;;18.77;17.88;;;;;;;-141.02;90.31;42726.50;5113411;28;20627;-62
2023/10/01 00:46:19;;;;;;;18.35;17.55;;;;;;;-141.02;92.75;42549.91;5113426;28;20651;-64
2023/10/01 00:48:48;;;;;;;18.20;17.40;;;;;;;-141.02;94.41;42352.19;5113630;28;20196;-63
2023/10/01 00:51:16;;;;;;;17.90;17.10;;;;;;;-141.02;95.85;42233.19;5113585;28;20197;-60
2023/10/01 00:53:43;;;;;;;16.70;16.00;;;;;;;-141.02;96.52;42148.75;5113553;28;20193;-59
2023/10/01 00:56:11;;;;;;;17.00;16.30;;;;;;;-141.02;94.69;42119.94;5113154;28;20663;-64
2023/10/01 00:58:39;;;;;;;16.90;16.20;;;;;;;-141.02;93.41;42137.22;5113505;28;20193;-65
2023/10/01 01:01:13;;;;;;;16.90;16.20;;;;;;;-141.02;91.96;42181.38;5112915;28;20224;-62
2023/10/01 01:03:40;;;;;;;17.10;16.40;;;;;;;-141.02;91.59;42164.09;5113369;28;20280;-64
2023/10/01 01:06:17;;;;;;;18.30;17.50;;;;;;;-141.02;89.83;42223.59;5113287;28;20193;-63
2023/10/01 01:08:49;;;;;;;18.08;17.27;;;;;;;-141.02;90.62;42219.75;5113045;28;20189;-62
2023/10/01 01:11:23;;;;;;;19.10;18.20;;;;;;;-141.02;89.38;42223.59;5113226;28;20558;-64
2023/10/01 01:13:51;;;;;;;18.65;17.83;;;;;;;-141.02;88.23;42252.38;5112920;28;20196;-63
2023/10/01 01:16:20;;;;;;;18.52;17.63;;;;;;;-141.02;88.00;42273.50;5112807;28;20193;-62
2023/10/01 01:18:51;;;;;;;18.20;17.40;;;;;;;-141.02;87.76;42263.91;5112374;28;20189;-61
2023/10/01 01:21:20;;;;;;;18.40;17.55;;;;;;;-141.02;86.27;42311.88;5112501;28;20694;-60
2023/10/01 01:23:50;;;;;;;18.98;18.08;;;;;;;-141.02;86.09;42313.81;5113092;28;20242;-59
2023/10/01 01:26:20;;;;;;;18.65;17.75;;;;;;;-141.02;87.10;42333.00;5113040;28;20193;-65
2023/10/01 01:28:48;;;;;;;19.40;18.50;;;;;;;-141.02;87.55;42333.00;5112691;28;20185;-61
2023/10/01 01:31:16;;;;;;;18.75;17.85;;;;;;;-141.02;87.62;42336.84;5110265;28;20324;-64
2023/10/01 01:33:55;;;;;;;19.05;18.15;;;;;;;-141.02;88.03;42329.16;5112855;28;20201;-63
2023/10/01 01:36:22;;;;;;;18.40;17.60;;;;;;;-141.02;87.70;42329.16;5113488;28;20199;-65
2023/10/01 01:39:12;;;;;;;18.00;17.20;;;;;;;-141.02;89.11;42333.00;5112827;28;20199;-60
2023/10/01 01:41:42;;;;;;;19.13;18.23;;;;;;;-141.02;88.48;42321.47;5112404;28;20266;-64
2023/10/01 01:44:13;;;;;;;18.70;17.80;;;;;;;-141.02;89.09;42329.16;5112511;28;20280;-63
2023/10/01 01:46:47;;;;;;;18.52;17.65;;;;;;;-141.02;89.37;42321.47;5112878;28;20264;-65
2023/10/01 01:49:17;;;;;;;18.40;17.60;;;;;;;-141.02;90.71;42306.13;5112491;28;20602;-65
2023/10/01 01:51:57;;;;;;;18.38;17.58;;;;;;;-141.02;91.11;42309.97;5112392;28;20215;-65
2023/10/01 01:54:29;;;;;;;18.42;17.63;;;;;;;-141.02;91.19;42313.81;5112699;28;20193;-65
2023/10/01 01:56:56;;;;;;;18.20;17.40;;;;;;;-141.02;91.18;42313.81;5112294;28;20201;-63
2023/10/01 01:59:27;;;;;;;17.48;16.67;;;;;;;-141.02;91.68;42271.56;5112644;28;20228;-63
2023/10/01 02:01:55;;;;;;;17.95;17.15;;;;;;;-141.02;92.36;42283.09;5112241;28;20260;-63
2023/10/01 02:04:23;;;;;;;18.08;17.27;;;;;;;-141.02;92.52;42279.25;5112251;28;20287;-64
2023/10/01 02:06:52;;;;;;;18.02;17.23;;;;;;;-141.02;93.18;42269.66;5112235;28;20575;-64
2023/10/01 02:09:20;;;;;;;17.85;17.05;;;;;;;-141.02;93.56;42271.56;5112207;28;20284;-65
2023/10/01 02:11:52;;;;;;;17.48;16.77;;;;;;;-141.02;94.58;42258.13;5112543;28;20196;-63
2023/10/01 02:14:31;;;;;;;17.60;16.80;;;;;;;-141.02;95.10;42260.06;5112533;28;20196;-60
2023/10/01 02:17:13;;;;;;;17.73;16.92;;;;;;;-141.02;95.81;42194.81;5112520;28;20576;-59
2023/10/01 02:19:41;;;;;;;17.50;16.77;;;;;;;-141.02;96.55;42210.16;5112194;28;20272;-58
2023/10/01 02:22:11;;;;;;;16.92;16.23;;;;;;;-141.02;96.61;42164.09;5112403;28;20225;-65
2023/10/01 02:24:55;;;;;;;16.80;16.10;;;;;;;-141.02;97.67;42156.41;5112167;28;20280;-64
2023/10/01 02:27:26;;;;;;;16.77;16.08;;;;;;;-141.02;96.99;42125.69;5112200;28;20185;-61
2023/10/01 02:30:14;;;;;;;16.48;15.80;;;;;;;-141.02;93.92;42160.25;5111937;28;20229;-63
2023/10/01 02:32:49;;;;;;;17.80;17.00;;;;;;;-141.02;92.26;42194.81;5115865;28;20205;-60
2023/10/01 02:35:35;;;;;;;17.48;16.67;;;;;;;-141.02;92.80;42183.28;5115965;28;20622;-61
2023/10/01 02:38:05;;;;;;;16.98;16.27;;;;;;;-141.02;93.63;42171.78;5116297;28;20193;-62
2023/10/01 02:40:36;;;;;;;17.40;16.70;;;;;;;-141.02;94.14;42175.59;5116073;28;20221;-62
2023/10/01 02:43:12;;;;;;;16.85;16.15;;;;;;;-141.02;94.72;42177.53;5116219;27;20620;-63
2023/10/01 02:45:41;;;;;;;16.20;15.50;;;;;;;-141.02;95.89;42139.13;5116127;28;20192;-63
2023/10/01 02:48:16;;;;;;;16.30;15.60;;;;;;;-141.02;95.06;42175.59;5115699;28;20200;-64
2023/10/01 02:50:45;;;;;;;16.80;16.10;;;;;;;-141.02;95.97;42144.91;5116004;28;20630;-63
2023/10/01 02:53:15;;;;;;;16.52;15.82;;;;;;;-141.02;95.39;42171.78;5115834;28;20270;-61
2023/10/01 02:55:45;;;;;;;16.80;16.10;;;;;;;-141.02;95.65;42166.00;5115545;28;20201;-64
2023/10/01 02:58:27;;;;;;;17.10;16.40;;;;;;;-141.02;96.03;42098.84;5115735;28;20262;-65
2023/10/01 03:00:53;;;;;;;15.95;15.27;;;;;;;-141.02;96.78;42148.75;5115705;28;20213;-62
2023/10/01 03:03:31;;;;;;;16.15;15.55;;;;;;;-141.02;96.75;42125.69;5115719;28;20204;-61
2023/10/01 03:05:59;;;;;;;16.30;15.63;;;;;;;-141.02;96.20;42112.28;5115411;28;20188;-58
2023/10/01 03:11:11;;;;;;;16.88;16.27;;;;;;;-141.02;94.56;42137.22;5115456;28;20727;-63
2023/10/01 03:13:40;;;;;;;17.10;16.40;;;;;;;-141.02;93.30;42190.97;5115495;28;20197;-61
2023/10/01 03:19:04;;;;;;;16.77;16.08;;;;;;;-141.02;92.89;42164.09;5115244;28;20232;-59
2023/10/01 03:24:20;;;;;;;17.35;16.65;;;;;;;-141.02;94.11;42164.09;5114749;28;20189;-59
2023/10/01 03:26:47;;;;;;;17.40;16.70;;;;;;;-141.02;94.12;42160.25;5115273;28;20655;-62
2023/10/01 03:29:17;;;;;;;16.85;16.15;;;;;;;-141.02;94.71;42154.50;5115185;28;20193;-63
2023/10/01 03:31:46;;;;;;;16.85;16.15;;;;;;;-141.02;94.30;42144.91;5114671;28;20221;-64
2023/10/01 03:34:28;;;;;;;16.65;15.95;;;;;;;-141.02;95.08;42152.56;5115111;28;20194;-63
2023/10/01 03:37:00;;;;;;;16.70;16.00;;;;;;;-141.02;96.61;42129.53;5115054;28;20580;-62
2023/10/01 03:39:27;;;;;;;16.75;16.05;;;;;;;-141.02;98.52;42096.91;5114794;28;20190;-58
2023/10/01 03:42:10;;;;;;;16.85;16.15;;;;;;;-141.02;98.60;42077.72;5114013;28;20260;-64
2023/10/01 03:47:26;;;;;;;16.00;15.40;;;;;;;-141.02;98.93;42045.09;5114420;28;20246;-58
2023/10/01 03:49:55;;;;;;;15.68;15.07;;;;;;;-141.02;99.62;42022.06;5114420;28;20675;-61
2023/10/01 03:52:21;;;;;;;15.80;15.20;;;;;;;-141.02;99.38;41995.19;5114791;28;20302;-61
2023/10/01 03:55:00;;;;;;;15.75;15.15;;;;;;;-141.02;98.70;42014.38;5114691;28;20275;-60
2023/10/01 03:57:29;;;;;;;15.20;14.60;;;;;;;-141.02;96.20;42010.53;5114405;28;20224;-65
2023/10/01 04:00:08;;;;;;;15.85;15.25;;;;;;;-141.02;94.14;42041.25;5114290;28;20189;-61
2023/10/01 04:02:46;;;;;;;16.08;15.48;;;;;;;-141.02;93.50;42073.88;5114093;28;20666;-62
2023/10/01 04:05:22;;;;;;;16.85;16.15;;;;;;;-141.02;93.93;42083.47;5114179;28;20750;-59
2023/10/01 04:07:50;;;;;;;16.17;15.48;;;;;;;-141.02;92.15;42114.19;5114576;28;20189;-60
2023/10/01 04:10:28;;;;;;;17.35;16.55;;;;;;;-141.02;92.63;42112.28;5114064;28;20670;-62
2023/10/01 04:12:59;;;;;;;16.75;16.05;;;;;;;-141.02;93.91;42137.22;5114150;28;20192;-60
2023/10/01 04:15:29;;;;;;;17.10;16.40;;;;;;;-141.02;94.22;42164.09;5113980;28;20673;-59
2023/10/01 04:20:48;;;;;;;16.92;16.23;;;;;;;-141.02;94.81;42254.31;5108554;28;20284;-60
2023/10/01 04:23:21;;;;;;;16.88;16.17;;;;;;;-141.02;95.00;42333.00;5114230;28;20222;-63
2023/10/01 04:25:51;;;;;;;16.02;15.32;;;;;;;-141.02;94.45;42331.09;5114181;28;20185;-63
2023/10/01 04:28:19;;;;;;;16.98;16.27;;;;;;;-141.02;95.42;42382.91;5114018;28;20195;-64
2023/10/01 04:30:51;;;;;;;17.27;16.58;;;;;;;-141.02;96.61;42402.09;5113586;28;20236;-63
2023/10/01 04:33:20;;;;;;;16.95;16.25;;;;;;;-141.02;98.40;42388.66;5113978;28;20185;-63
2023/10/01 04:35:55;;;;;;;16.33;15.73;;;;;;;-141.02;98.70;42405.94;5113508;28;20620;-58
2023/10/01 04:38:26;;;;;;;15.20;14.60;;;;;;;-141.02;99.05;42463.53;5113664;28;20195;-61
2023/10/01 04:40:54;;;;;;;14.55;14.05;;;;;;;-141.02;99.02;42417.47;5113710;28;20215;-65
2023/10/01 04:43:21;;;;;;;14.88;14.38;;;;;;;-141.02;98.01;42453.94;5113834;28;20197;-59
2023/10/01 04:45:52;;;;;;;15.50;14.90;;;;;;;-141.02;97.59;42448.16;5113692;28;20193;-61
2023/10/01 04:48:23;;;;;;;15.70;15.10;;;;;;;-141.02;96.41;42475.03;5113752;28;20558;-64
2023/10/01 04:50:53;;;;;;;16.13;15.52;;;;;;;-141.02;95.76;42505.75;5113260;28;20652;-62
2023/10/01 04:53:21;;;;;;;15.85;15.25;;;;;;;-141.02;95.06;42501.91;5113262;28;20229;-64
2023/10/01 04:56:00;;;;;;;16.73;16.02;;;;;;;-141.02;94.71;42536.47;5113483;28;20207;-64
2023/10/01 04:58:29;;;;;;;17.48;16.77;;;;;;;-141.02;94.67;42513.44;5113475;28;20196;-62
2023/10/01 05:00:58;;;;;;;17.10;16.40;;;;;;;-141.02;94.82;42486.56;5113348;28;20193;-63
2023/10/01 05:03:38;;;;;;;17.27;16.58;;;;;;;-141.02;94.22;42532.63;5113125;28;20197;-63
2023/10/01 05:06:08;;;;;;;17.45;16.75;;;;;;;-141.02;93.94;42526.88;5113336;28;20185;-61
2023/10/01 05:08:39;;;;;;;16.90;16.20;;;;;;;-141.02;93.97;42494.25;5112999;28;20181;-61
2023/10/01 05:11:10;;;;;;;17.05;16.35;;;;;;;-141.02;94.11;42521.13;5113250;28;20192;-58
2023/10/01 05:13:40;;;;;;;17.17;16.48;;;;;;;-141.02;94.36;42509.59;5113308;28;20193;-64
2023/10/01 05:16:12;;;;;;;16.98;16.27;;;;;;;-141.02;94.53;42507.69;5113242;28;20196;-58
2023/10/01 05:18:39;;;;;;;16.98;16.27;;;;;;;-141.02;94.10;42513.44;5113178;28;20292;-58
2023/10/01 05:21:12;;;;;;;17.10;16.40;;;;;;;-141.02;93.79;42571.03;5112721;28;20197;-64
2023/10/01 05:23:39;;;;;;;16.80;16.10;;;;;;;-141.02;93.34;42559.50;5113042;28;20185;-57
2023/10/01 05:26:06;;;;;;;17.17;16.48;;;;;;;-141.02;92.90;42523.03;5112712;28;20193;-58
2023/10/01 05:28:36;;;;;;;16.80;16.10;;;;;;;-141.02;92.46;42555.66;5112642;28;20193;-63
2023/10/01 05:31:13;;;;;;;16.60;15.90;;;;;;;-141.02;93.29;42536.47;5112505;28;20240;-64
2023/10/01 05:33:45;;;;;;;16.63;15.93;;;;;;;-141.02;92.56;42513.44;5112621;28;20280;-58
2023/10/01 05:36:16;;;;;;;16.80;16.10;;;;;;;-141.02;93.35;42536.47;5112629;28;20280;-62
2023/10/01 05:38:44;;;;;;;16.27;15.57;;;;;;;-141.02;94.09;42617.09;5112767;28;20262;-63
2023/10/01 05:41:13;;;;;;;16.30;15.60;;;;;;;-141.02;93.59;42674.69;5112477;28;20193;-60
2023/10/01 05:43:43;;;;;;;16.58;15.88;;;;;;;-141.02;92.72;42651.66;5112742;28;20292;-64
2023/10/01 05:46:11;;;;;;;16.58;15.88;;;;;;;-141.02;92.54;42647.81;5112879;28;20542;-60
2023/10/01 05:48:39;;;;;;;17.00;16.20;;;;;;;-141.02;91.79;42628.63;5112412;28;20579;-64
2023/10/01 05:51:11;;;;;;;17.02;16.25;;;;;;;-141.02;91.07;42628.63;5112401;28;20232;-58
2023/10/01 05:53:38;;;;;;;17.25;16.45;;;;;;;-141.02;90.94;42613.25;5112744;28;20192;-59
2023/10/01 05:56:07;;;;;;;17.25;16.45;;;;;;;-141.02;90.50;42572.94;5112339;28;20214;-59
2023/10/01 05:58:34;;;;;;;17.33;16.52;;;;;;;-141.02;91.03;42574.88;5112654;28;20663;-63
2023/10/01 06:01:13;;;;;;;17.15;16.35;;;;;;;-141.02;90.04;42580.63;5112306;28;20196;-60
2023/10/01 06:03:42;;;;;;;17.70;16.90;;;;;;;-141.02;89.67;42586.38;5112692;28;20190;-61
2023/10/01 06:06:13;;;;;;;17.50;16.70;;;;;;;-141.02;89.33;42592.13;5114306;28;20280;-64
2023/10/01 06:08:49;;;;;;;17.58;16.77;;;;;;;-141.02;88.23;42594.06;5116507;28;20181;-59
2023/10/01 06:11:18;;;;;;;17.60;16.80;;;;;;;-141.02;88.86;42620.94;5116772;28;20185;-63
2023/10/01 06:13:53;;;;;;;17.05;16.35;;;;;;;-141.02;89.06;42590.22;5116669;28;20196;-62
2023/10/01 06:16:22;;;;;;;17.80;17.00;;;;;;;-141.02;88.59;42609.41;5116339;28;20193;-60
2023/10/01 06:18:51;;;;;;;17.98;17.17;;;;;;;-141.02;88.60;42580.63;5116588;28;20258;-61
2023/10/01 06:21:22;;;;;;;18.50;17.70;;;;;;;-141.02;87.94;42624.78;5116125;28;20193;-61
2023/10/01 06:23:49;;;;;;;16.85;16.15;;;;;;;-141.02;88.04;42548.00;5116558;28;20193;-59
2023/10/01 06:26:19;;;;;;;17.45;16.65;;;;;;;-141.02;87.84;42534.56;5116492;28;20280;-64
2023/10/01 06:28:46;;;;;;;17.33;16.52;;;;;;;-141.02;87.54;42582.53;5116405;27;20242;-64
2023/10/01 06:31:16;;;;;;;17.25;16.45;;;;;;;-141.02;87.21;42574.88;5115973;28;20236;-60
2023/10/01 06:33:44;;;;;;;17.60;16.80;;;;;;;-141.02;88.02;42551.81;5116268;27;20250;-63
2023/10/01 06:36:19;;;;;;;17.90;17.10;;;;;;;-141.02;88.40;42532.63;5115975;28;20196;-60
2023/10/01 06:38:50;;;;;;;17.38;16.58;;;;;;;-141.02;88.25;42571.03;5115921;28;20196;-57
2023/10/01 06:41:18;;;;;;;19.30;18.40;;;;;;;-141.02;88.20;42523.03;5116460;28;20262;-58
2023/10/01 06:43:49;;;;;;;21.80;20.80;;;;;;;-141.02;87.95;42534.56;5116010;28;20197;-57
2023/10/01 06:46:21;;;;;;;17.65;16.85;;;;;;;-141.02;88.52;42519.19;5116132;28;20189;-63
2023/10/01 06:48:49;;;;;;;18.42;17.63;;;;;;;-141.02;88.17;42528.78;5116017;28;20197;-64
2023/10/01 06:51:19;;;;;;;17.88;17.08;;;;;;;-141.02;87.33;42555.66;5115971;27;20606;-59
2023/10/01 06:53:53;;;;;;;17.83;17.02;;;;;;;-141.02;87.44;42532.63;5115896;27;20197;-59
2023/10/01 06:56:21;;;;;;;17.40;16.70;;;;;;;-141.02;87.03;42528.78;5115601;28;20278;-58
2023/10/01 07:01:46;;;;;;;17.50;16.70;;;;;;;-141.02;86.94;42532.63;5110306;27;20546;-60
2023/10/01 07:04:14;;;;;;;17.75;16.95;;;;;;;-141.02;86.42;42536.47;5109895;28;20716;-59
2023/10/01 07:06:44;;;;;;;17.35;16.55;;;;;;;-141.02;86.00;42544.16;5110215;28;20259;-58
2023/10/01 07:09:24;;;;;;;17.73;17.02;;;;;;;-141.02;86.06;42528.78;5109925;28;20189;-58
2023/10/01 07:11:52;;;;;;;17.88;17.08;;;;;;;-141.02;86.08;42509.59;5110151;28;20185;-62
2023/10/01 07:14:30;;;;;;;17.85;17.05;;;;;;;-141.02;85.44;42524.94;5109778;28;20199;-64
2023/10/01 07:17:00;;;;;;;18.15;17.35;;;;;;;-141.02;83.79;42524.94;5110068;28;20181;-62
2023/10/01 07:19:27;;;;;;;18.63;17.73;;;;;;;-141.02;82.42;42555.66;5109678;28;20193;-60
2023/10/01 07:21:58;;;;;;;19.38;18.48;;;;;;;-141.02;81.60;42586.38;5109620;28;20663;-61
2023/10/01 07:24:29;;;;;;;19.08;18.17;;;;;;;-141.02;81.45;42636.28;5109939;28;20185;-63
2023/10/01 07:27:03;;;;;;;19.38;18.48;;;;;;;-141.02;81.91;42670.84;5109905;28;20189;-59
2023/10/01 07:29:33;;;;;;;19.52;18.63;;;;;;;-141.02;81.44;42713.06;5109911;28;20196;-61
2023/10/01 07:32:06;;;;;;;19.08;18.17;;;;;;;-141.02;80.71;42768.75;5109451;28;20501;-63
2023/10/01 07:34:35;;;;;;;19.10;18.20;;;;;;;-141.02;80.55;42789.88;5109496;28;20276;-59
2023/10/01 07:37:04;;;;;;;19.10;18.20;;;;;;;-141.02;78.75;42805.22;5109334;28;20201;-63
2023/10/01 07:39:40;;;;;;;19.17;18.27;;;;;;;-141.02;77.75;42809.06;5109202;28;20197;-62
2023/10/01 07:42:10;;;;;;;19.45;18.55;;;;;;;-141.02;79.03;42824.41;5109213;28;20566;-61
2023/10/01 07:44:37;;;;;;;19.23;18.33;;;;;;;-141.02;77.99;42835.94;5109567;28;20189;-63
2023/10/01 07:47:06;;;;;;;19.17;18.27;;;;;;;-141.02;77.07;42853.22;5109159;28;20197;-61
2023/10/01 07:49:48;;;;;;;19.10;18.20;;;;;;;-141.02;76.33;42860.91;5109112;28;20276;-62
2023/10/01 07:52:17;;;;;;;18.55;17.65;;;;;;;-141.02;75.85;42885.84;5109333;28;20568;-64
2023/10/01 07:54:47;;;;;;;19.17;18.20;;;;;;;-141.02;76.45;42889.69;5109069;28;20201;-62
2023/10/01 07:57:16;;;;;;;19.35;18.45;;;;;;;-141.02;76.95;42889.69;5109295;28;20213;-59
2023/10/01 07:59:46;;;;;;;19.13;18.23;;;;;;;-141.02;76.36;42918.50;5109007;28;20228;-63
2023/10/01 08:02:19;;;;;;;19.08;18.17;;;;;;;-141.02;75.65;42928.09;5109163;28;20189;-63
2023/10/01 08:04:59;;;;;;;18.90;18.00;;;;;;;-141.02;76.25;42893.53;5108833;28;20276;-64
2023/10/01 08:07:39;;;;;;;18.33;17.42;;;;;;;-141.02;75.54;42920.41;5108719;28;20655;-66
2023/10/01 08:10:16;;;;;;;18.88;17.88;;;;;;;-141.02;74.16;42939.59;5109035;28;20220;-66
2023/10/01 08:15:31;;;;;;;17.95;17.05;;;;;;;-141.02;76.96;42943.44;5095109;28;20319;-63
2023/10/01 08:18:19;;;;;;;18.40;17.50;;;;;;;-141.02;75.83;42981.84;5094943;28;20663;-66
2023/10/01 08:20:56;;;;;;;18.60;17.60;;;;;;;-141.02;74.98;42976.09;5094905;28;20209;-63
2023/10/01 08:23:24;;;;;;;18.65;17.75;;;;;;;-141.02;74.74;42962.66;5094971;28;20547;-60
2023/10/01 08:25:51;;;;;;;18.60;17.60;;;;;;;-141.02;73.75;42974.16;5094888;28;20193;-65
2023/10/01 08:28:27;;;;;;;18.38;17.48;;;;;;;-141.02;72.75;42985.69;5094818;28;20659;-67
2023/10/01 08:31:20;;;;;;;18.65;17.75;;;;;;;-141.02;73.24;42997.19;5094695;28;20277;-64
2023/10/01 08:33:51;;;;;;;17.90;17.00;;;;;;;-141.02;73.00;43004.88;5094666;28;20187;-62
2023/10/01 08:36:24;;;;;;;18.10;17.20;;;;;;;-141.02;71.46;43020.25;5094630;28;20262;-59
2023/10/01 08:41:35;;;;;;;17.77;16.88;;;;;;;-141.02;70.96;43058.63;5094314;28;20225;-61
2023/10/01 08:44:11;;;;;;;17.65;16.75;;;;;;;-141.02;71.15;43035.59;5094766;28;20277;-63
2023/10/01 08:46:40;;;;;;;17.63;16.83;;;;;;;-141.02;70.34;43047.13;5094498;28;20185;-64
2023/10/01 08:49:22;;;;;;;17.42;16.63;;;;;;;-141.02;70.94;43081.66;5094694;28;20221;-64
2023/10/01 08:51:52;;;;;;;17.63;16.73;;;;;;;-141.02;72.34;43077.84;5094694;28;20193;-61
2023/10/01 08:54:24;;;;;;;17.27;16.48;;;;;;;-141.02;72.10;43085.50;5094199;28;20584;-63
2023/10/01 08:56:53;;;;;;;17.85;16.95;;;;;;;-141.02;71.74;43083.59;5094258;28;20235;-60
2023/10/01 08:59:24;;;;;;;17.73;16.83;;;;;;;-141.02;70.97;43095.13;5093963;28;20193;-66
2023/10/01 09:01:55;;;;;;;17.85;16.95;;;;;;;-141.02;71.11;43097.03;5094390;28;20653;-59
2023/10/01 09:04:44;;;;;;;17.77;16.88;;;;;;;-141.02;70.74;43104.72;5094387;28;20182;-63
2023/10/01 09:07:18;;;;;;;17.80;16.90;;;;;;;-141.02;69.06;43087.44;5094005;28;20190;-61
2023/10/01 09:09:53;;;;;;;17.63;16.73;;;;;;;-141.02;70.54;43104.72;5093914;28;20196;-64
2023/10/01 09:12:20;;;;;;;17.17;16.38;;;;;;;-141.02;70.03;43118.16;5093937;28;20217;-66
2023/10/01 09:14:50;;;;;;;17.55;16.65;;;;;;;-141.02;70.01;43116.22;5094074;28;20216;-67
2023/10/01 09:17:25;;;;;;;17.27;16.38;;;;;;;-141.02;70.19;42935.75;5094095;28;20194;-63
2023/10/01 09:19:54;;;;;;;17.27;16.38;;;;;;;-141.02;70.60;42709.25;5093658;28;20663;-66
2023/10/01 09:22:35;;;;;;;17.23;16.42;;;;;;;-141.02;72.17;43131.59;5093675;28;20202;-65
2023/10/01 09:25:16;;;;;;;17.10;16.30;;;;;;;-141.02;73.05;43143.09;5093357;28;20200;-63
2023/10/01 09:27:57;;;;;;;16.85;16.05;;;;;;;-141.02;72.78;43154.63;5093627;28;20620;-64
2023/10/01 09:30:27;;;;;;;16.85;16.05;;;;;;;-141.02;71.69;43154.63;5093936;28;20194;-63
2023/10/01 09:32:55;;;;;;;17.35;16.55;;;;;;;-141.02;72.19;42872.41;5093720;28;20225;-66
2023/10/01 09:35:38;;;;;;;17.30;16.50;;;;;;;-141.02;73.22;42812.91;5093410;28;20580;-66
2023/10/01 09:38:11;;;;;;;17.10;16.30;;;;;;;-141.02;75.09;42807.13;5093743;28;20221;-65
2023/10/01 09:40:41;;;;;;;16.90;16.10;;;;;;;-141.02;74.62;43158.47;5093349;28;20214;-64
2023/10/01 09:43:18;;;;;;;17.27;16.48;;;;;;;-141.02;72.63;42920.41;5093621;28;20236;-67
2023/10/01 09:45:46;;;;;;;16.98;16.17;;;;;;;-141.02;72.79;42839.78;5093293;28;20320;-63
2023/10/01 09:48:29;;;;;;;16.70;15.90;;;;;;;-141.02;74.99;42901.22;5093211;28;20202;-66
2023/10/01 09:51:13;;;;;;;16.88;16.08;;;;;;;-141.02;74.77;43145.03;5093520;28;20190;-66
2023/10/01 09:53:45;;;;;;;17.10;16.30;;;;;;;-141.02;73.09;42893.53;5093208;28;20194;-64
2023/10/01 09:56:14;;;;;;;16.65;15.85;;;;;;;-141.02;73.49;42847.47;5093863;28;20182;-67
2023/10/01 09:58:46;;;;;;;17.23;16.42;;;;;;;-141.02;74.66;42922.31;5093363;28;20221;-66
2023/10/01 10:01:17;;;;;;;17.13;16.33;;;;;;;-141.02;73.82;42870.50;5092828;28;20268;-62
2023/10/01 10:03:45;;;;;;;16.98;16.17;;;;;;;-141.02;70.47;43177.66;5092993;28;20186;-66
2023/10/01 10:06:24;;;;;;;17.35;16.48;;;;;;;-141.02;68.46;42897.38;5092899;28;20197;-63
2023/10/01 10:09:03;;;;;;;17.48;16.58;;;;;;;-141.02;68.68;43145.03;5093602;28;20288;-65
2023/10/01 10:11:36;;;;;;;17.17;16.38;;;;;;;-141.02;67.74;43139.28;5093051;28;20268;-66
2023/10/01 10:14:25;;;;;;;17.45;16.55;;;;;;;-141.02;67.03;43143.09;5093196;28;20225;-66
2023/10/01 10:16:58;;;;;;;17.80;16.90;;;;;;;-141.02;67.38;43194.94;5092735;28;20189;-65
2023/10/01 10:19:25;;;;;;;17.55;16.67;;;;;;;-141.02;68.06;43154.63;5092683;28;20198;-66
2023/10/01 10:22:16;;;;;;;17.02;16.23;;;;;;;-141.02;67.00;43150.78;5092769;28;20613;-67
2023/10/01 10:24:48;;;;;;;17.17;16.38;;;;;;;-141.02;67.46;42981.84;5092909;28;20212;-61
2023/10/01 10:27:33;;;;;;;17.20;16.33;;;;;;;-141.02;67.71;42966.47;5092912;28;20182;-65
2023/10/01 10:30:16;;;;;;;16.88;16.08;;;;;;;-141.02;68.68;42962.66;5092326;28;20225;-61
2023/10/01 10:33:39;;;;;;;17.08;16.27;;;;;;;-141.02;68.50;42981.84;5092520;28;20190;-67
2023/10/01 10:36:51;;;;;;;17.10;16.30;;;;;;;-141.02;68.30;43024.06;5092140;28;20712;-66
2023/10/01 10:40:12;;;;;;;17.00;16.20;;;;;;;-141.02;68.77;43193.03;5050177;28;20195;-65
2023/10/01 10:42:39;;;;;;;17.02;16.23;;;;;;;-141.02;68.25;43058.63;5048047;28;20228;-65
2023/10/01 10:45:23;;;;;;;17.00;16.20;;;;;;;-141.02;67.86;43181.50;5050149;28;20214;-65
2023/10/01 10:47:59;;;;;;;16.95;16.15;;;;;;;-141.02;68.29;43085.50;5050019;28;20187;-60
2023/10/01 10:50:44;;;;;;;16.65;15.85;;;;;;;-141.02;67.10;43208.38;5050107;28;20206;-60
2023/10/01 10:53:15;;;;;;;16.58;15.77;;;;;;;-141.02;66.50;42958.81;5049950;28;20193;-63
2023/10/01 10:55:54;;;;;;;16.80;16.00;;;;;;;-141.02;67.15;43246.78;5049892;28;20250;-64
2023/10/01 10:58:24;;;;;;;16.75;15.95;;;;;;;-141.02;66.55;43227.59;5049782;28;20744;-65
2023/10/01 11:00:51;;;;;;;17.17;16.38;;;;;;;-141.02;67.20;43241.03;5049619;28;20288;-65
2023/10/01 11:03:40;;;;;;;17.10;16.30;;;;;;;-141.02;66.99;43242.94;5049787;28;20222;-61
2023/10/01 11:06:18;;;;;;;16.77;15.98;;;;;;;-141.02;66.43;43275.59;5049815;28;20195;-63
2023/10/01 11:08:51;;;;;;;16.75;15.95;;;;;;;-141.02;65.90;43273.66;5049732;28;20191;-65
2023/10/01 11:11:28;;;;;;;16.77;15.98;;;;;;;-141.02;65.90;43269.81;5092091;28;20243;-64
2023/10/01 11:14:01;;;;;;;16.63;15.82;;;;;;;-141.02;66.82;43254.47;5092344;28;20203;-66
2023/10/01 11:16:37;;;;;;;16.30;15.57;;;;;;;-141.02;65.98;43254.47;5092312;28;20690;-60
2023/10/01 11:19:13;;;;;;;16.52;15.73;;;;;;;-141.02;65.84;43141.19;5092272;28;20186;-65
2023/10/01 11:21:54;;;;;;;16.55;15.80;;;;;;;-141.02;66.52;42926.16;5091829;28;20296;-65
2023/10/01 11:24:25;;;;;;;18.50;17.55;;;;;;;-141.02;67.37;42891.59;5091958;28;20228;-64
2023/10/01 11:27:19;;;;;;;16.60;15.80;;;;;;;-141.02;68.36;42885.84;5091929;28;20278;-60
2023/10/01 11:30:15;;;;;;;16.65;15.85;;;;;;;-141.02;68.50;42882.00;5092147;28;20682;-62
2023/10/01 11:33:12;;;;;;;17.08;16.27;;;;;;;-141.02;69.79;42924.25;5092164;28;20186;-62
2023/10/01 11:35:41;;;;;;;16.95;16.15;;;;;;;-141.02;70.15;42916.56;5092164;28;20346;-63
2023/10/01 11:38:10;;;;;;;17.40;16.60;;;;;;;-141.02;69.90;42947.28;5091737;28;20285;-66
2023/10/01 11:43:32;;;;;;;16.90;16.10;;;;;;;-141.02;70.79;42962.66;5091952;28;20658;-66
2023/10/01 11:46:29;;;;;;;16.95;16.15;;;;;;;-141.02;70.54;43022.16;5091684;28;20680;-65
2023/10/01 11:48:56;;;;;;;16.98;16.17;;;;;;;-141.02;70.79;43273.66;5071987;28;20233;-66
2023/10/01 11:51:31;;;;;;;16.77;15.98;;;;;;;-141.02;69.32;43300.56;5095806;28;20259;-63
2023/10/01 11:54:09;;;;;;;16.98;16.17;;;;;;;-141.02;67.08;43146.94;5095713;28;20198;-65